createdAt,value
2023-04-07T00:01:23.227Z,34.80
2023-04-07T00:03:51.287Z,34.70
2023-04-07T00:06:20.480Z,34.80
2023-04-07T00:08:48.146Z,34.90
2023-04-07T00:11:15.826Z,35.00
2023-04-07T00:13:43.737Z,35.00
2023-04-07T00:16:11.993Z,35.10
2023-04-07T00:18:39.702Z,35.10
2023-04-07T00:21:07.888Z,35.30
2023-04-07T00:23:37.261Z,35.30
2023-04-07T00:26:05.295Z,35.30
2023-04-07T00:28:33.221Z,35.30
2023-04-07T00:31:01.382Z,35.40
2023-04-07T00:33:29.650Z,35.50
2023-04-07T00:35:58.638Z,35.50
2023-04-07T00:38:26.657Z,35.60
2023-04-07T00:41:00.351Z,35.60
2023-04-07T00:43:28.778Z,35.60
2023-04-07T00:45:56.803Z,35.80
2023-04-07T00:48:24.938Z,35.70
2023-04-07T00:50:52.712Z,35.80
2023-04-07T00:53:20.643Z,36.00
2023-04-07T00:55:48.478Z,35.90
2023-04-07T00:58:17.501Z,36.10
2023-04-07T01:00:49.664Z,36.00
2023-04-07T01:03:20.273Z,36.00
2023-04-07T01:05:51.596Z,36.20
2023-04-07T01:08:23.292Z,36.20
2023-04-07T01:10:52.790Z,36.20
2023-04-07T01:13:25.454Z,36.20
2023-04-07T01:15:56.400Z,36.30
2023-04-07T01:18:25.935Z,36.40
2023-04-07T01:20:53.965Z,36.40
2023-04-07T01:23:24.693Z,36.30
2023-04-07T01:26:01.404Z,36.40
2023-04-07T01:28:47.526Z,36.60
2023-04-07T01:31:16.901Z,36.60
2023-04-07T01:33:45.807Z,36.60
2023-04-07T01:36:13.698Z,36.60
2023-04-07T01:38:41.998Z,36.70
2023-04-07T01:41:09.801Z,36.70
2023-04-07T01:43:38.632Z,36.70
2023-04-07T01:46:06.413Z,37.20
2023-04-07T01:48:35.618Z,36.80
2023-04-07T01:51:04.009Z,36.90
2023-04-07T01:53:31.801Z,36.90
2023-04-07T01:55:59.539Z,36.80
2023-04-07T01:58:27.618Z,36.80
2023-04-07T02:00:55.396Z,36.80
2023-04-07T02:03:25.116Z,37.50
2023-04-07T02:05:57.158Z,37.00
2023-04-07T02:08:25.438Z,37.00
2023-04-07T02:10:53.181Z,37.00
2023-04-07T02:13:22.377Z,37.00
2023-04-07T02:15:50.398Z,37.10
2023-04-07T02:18:18.985Z,37.10
2023-04-07T02:20:46.978Z,37.00
2023-04-07T02:23:16.286Z,37.20
2023-04-07T02:25:44.346Z,37.20
2023-04-07T02:28:12.640Z,37.20
2023-04-07T02:30:41.034Z,37.30
2023-04-07T02:33:09.442Z,37.30
2023-04-07T02:35:37.797Z,37.20
2023-04-07T02:38:05.705Z,37.50
2023-04-07T02:40:36.616Z,37.30
2023-04-07T02:43:05.283Z,37.40
2023-04-07T02:45:33.770Z,37.40
2023-04-07T02:48:01.891Z,37.40
2023-04-07T02:50:30.216Z,37.40
2023-04-07T02:52:58.288Z,37.40
2023-04-07T02:55:26.769Z,37.50
2023-04-07T02:57:56.066Z,37.50
2023-04-07T03:00:23.889Z,37.60
2023-04-07T03:02:51.846Z,37.60
2023-04-07T03:05:19.974Z,37.70
2023-04-07T03:07:48.119Z,38.20
2023-04-07T03:10:15.877Z,37.60
2023-04-07T03:12:44.889Z,37.70
2023-04-07T03:15:16.172Z,37.60
2023-04-07T03:17:44.968Z,37.70
2023-04-07T03:20:13.493Z,37.60
2023-04-07T03:22:41.373Z,37.60
2023-04-07T03:25:09.507Z,37.80
2023-04-07T03:27:37.361Z,37.60
2023-04-07T03:30:06.013Z,37.70
2023-04-07T03:32:36.002Z,37.70
2023-04-07T03:35:04.028Z,37.70
2023-04-07T03:37:31.954Z,37.70
2023-04-07T03:40:00.238Z,37.80
2023-04-07T03:42:28.083Z,37.80
2023-04-07T03:44:55.972Z,37.90
2023-04-07T03:47:23.763Z,37.80
2023-04-07T03:49:53.520Z,37.90
2023-04-07T03:52:21.396Z,37.90
2023-04-07T03:54:49.380Z,38.10
2023-04-07T03:57:17.230Z,38.10
2023-04-07T03:59:45.235Z,38.10
2023-04-07T04:02:13.074Z,37.90
2023-04-07T04:04:41.604Z,38.00
2023-04-07T04:07:10.663Z,37.90
2023-04-07T04:09:38.922Z,38.00
2023-04-07T04:12:06.782Z,38.10
2023-04-07T04:14:34.516Z,38.00
2023-04-07T04:17:02.569Z,38.10
2023-04-07T04:19:33.251Z,38.00
2023-04-07T04:22:00.915Z,38.10
2023-04-07T04:24:30.438Z,38.10
2023-04-07T04:26:58.087Z,38.00
2023-04-07T04:29:25.988Z,38.20
2023-04-07T04:31:53.721Z,38.10
2023-04-07T04:34:21.702Z,38.00
2023-04-07T04:36:49.520Z,38.00
2023-04-07T04:39:17.606Z,38.00
2023-04-07T04:41:46.682Z,38.00
2023-04-07T04:44:14.723Z,38.10
2023-04-07T04:46:42.847Z,38.10
2023-04-07T04:49:10.572Z,38.20
2023-04-07T04:51:38.682Z,38.10
2023-04-07T04:54:06.801Z,38.10
2023-04-07T04:56:34.933Z,38.10
2023-04-07T04:59:03.994Z,38.10
2023-04-07T05:01:33.329Z,38.10
2023-04-07T05:04:01.685Z,38.20
2023-04-07T05:06:29.514Z,38.90
2023-04-07T05:08:57.444Z,38.30
2023-04-07T05:11:25.127Z,38.20
2023-04-07T05:13:53.101Z,38.30
2023-04-07T05:16:22.911Z,38.30
2023-04-07T05:18:50.691Z,38.20
2023-04-07T05:21:20.144Z,38.20
2023-04-07T05:23:48.344Z,38.20
2023-04-07T05:26:16.273Z,38.10
2023-04-07T05:28:44.884Z,38.10
2023-04-07T05:31:12.870Z,38.10
2023-04-07T05:33:42.494Z,38.20
2023-04-07T05:36:11.446Z,38.20
2023-04-07T05:38:39.294Z,38.30
2023-04-07T05:41:07.669Z,38.10
2023-04-07T05:43:35.558Z,38.30
2023-04-07T05:46:03.934Z,38.20
2023-04-07T05:48:31.863Z,38.20
2023-04-07T05:51:01.647Z,38.20
2023-04-07T05:53:29.460Z,38.30
2023-04-07T05:55:57.706Z,38.30
2023-04-07T05:58:25.558Z,38.20
2023-04-07T06:00:53.415Z,38.20
2023-04-07T06:03:21.412Z,38.30
2023-04-07T06:05:49.389Z,38.30
2023-04-07T06:08:18.663Z,38.20
2023-04-07T06:10:46.724Z,38.20
2023-04-07T06:13:15.173Z,38.20
2023-04-07T06:15:42.887Z,38.30
2023-04-07T06:18:10.688Z,38.20
2023-04-07T06:20:38.535Z,38.30
2023-04-07T06:23:06.700Z,38.00
2023-04-07T06:25:36.602Z,38.10
2023-04-07T06:28:04.520Z,38.10
2023-04-07T06:30:32.451Z,38.00
2023-04-07T06:33:01.310Z,38.10
2023-04-07T06:35:29.692Z,38.00
2023-04-07T06:37:58.112Z,38.30
2023-04-07T06:40:26.356Z,38.10
2023-04-07T06:42:56.627Z,38.20
2023-04-07T06:45:25.014Z,38.20
2023-04-07T06:47:53.026Z,38.20
2023-04-07T06:50:22.616Z,38.20
2023-04-07T06:52:50.489Z,38.10
2023-04-07T06:55:18.754Z,38.00
2023-04-07T06:57:46.711Z,38.20
2023-04-07T07:00:16.942Z,38.00
2023-04-07T07:02:45.307Z,38.10
2023-04-07T07:05:13.095Z,38.20
2023-04-07T07:07:40.775Z,38.20
2023-04-07T07:10:10.274Z,38.20
2023-04-07T07:12:37.944Z,38.20
2023-04-07T07:15:06.714Z,38.20
2023-04-07T07:17:36.089Z,38.20
2023-04-07T07:20:04.131Z,38.10
2023-04-07T07:22:32.025Z,38.10
2023-04-07T07:24:59.953Z,38.30
2023-04-07T07:27:27.805Z,38.20
2023-04-07T07:29:56.046Z,38.10
2023-04-07T07:32:24.329Z,38.20
2023-04-07T07:34:53.333Z,38.30
2023-04-07T07:37:21.026Z,39.00
2023-04-07T07:39:49.326Z,38.30
2023-04-07T07:42:17.157Z,38.30
2023-04-07T07:44:44.939Z,38.30
2023-04-07T07:47:12.679Z,38.20
2023-04-07T07:49:41.716Z,38.30
2023-04-07T07:52:10.928Z,38.30
2023-04-07T07:54:38.597Z,38.30
2023-04-07T07:57:06.365Z,38.30
2023-04-07T07:59:34.090Z,38.40
2023-04-07T08:02:01.793Z,38.20
2023-04-07T08:04:30.240Z,38.10
2023-04-07T08:06:58.419Z,38.10
2023-04-07T08:09:27.742Z,38.00
2023-04-07T08:11:55.667Z,38.10
2023-04-07T08:14:23.945Z,38.10
2023-04-07T08:16:51.771Z,38.00
2023-04-07T08:19:20.089Z,38.00
2023-04-07T08:21:47.931Z,37.90
2023-04-07T08:24:15.998Z,38.00
2023-04-07T08:26:46.158Z,38.00
2023-04-07T08:29:14.525Z,38.00
2023-04-07T08:31:42.490Z,37.90
2023-04-07T08:34:10.446Z,37.80
2023-04-07T08:36:41.516Z,37.80
2023-04-07T08:39:10.927Z,37.80
2023-04-07T08:41:39.426Z,37.80
2023-04-07T08:44:09.760Z,37.70
2023-04-07T08:46:37.765Z,37.60
2023-04-07T08:49:05.653Z,37.60
2023-04-07T08:51:34.004Z,37.70
2023-04-07T08:54:06.185Z,37.50
2023-04-07T08:56:34.350Z,37.50
2023-04-07T08:59:02.764Z,37.40
2023-04-07T09:01:32.142Z,37.30
2023-04-07T09:04:00.006Z,37.20
2023-04-07T09:06:27.824Z,37.20
2023-04-07T09:08:55.943Z,37.00
2023-04-07T09:11:24.115Z,37.00
2023-04-07T09:13:51.902Z,37.00
2023-04-07T09:16:20.175Z,36.90
2023-04-07T09:18:49.453Z,36.80
2023-04-07T09:21:17.319Z,36.50
2023-04-07T09:23:45.500Z,36.50
2023-04-07T09:26:24.426Z,36.40
2023-04-07T09:28:54.648Z,36.30
2023-04-07T09:31:22.760Z,36.70
2023-04-07T09:33:53.211Z,35.90
2023-04-07T09:36:21.069Z,35.80
2023-04-07T09:38:49.239Z,35.70
2023-04-07T09:41:17.828Z,35.60
2023-04-07T09:43:47.165Z,35.40
2023-04-07T09:46:15.664Z,35.20
2023-04-07T09:48:45.377Z,35.10
2023-04-07T09:51:15.497Z,35.00
2023-04-07T09:53:48.774Z,34.80
2023-04-07T09:56:17.658Z,34.80
2023-04-07T09:58:46.149Z,34.70
2023-04-07T10:01:14.776Z,34.50
2023-04-07T10:03:43.215Z,34.20
2023-04-07T10:06:11.842Z,34.00
2023-04-07T10:08:42.964Z,34.00
2023-04-07T10:11:11.024Z,33.70
2023-04-07T10:13:40.803Z,33.50
2023-04-07T10:16:08.992Z,33.40
2023-04-07T10:18:37.956Z,33.30
2023-04-07T10:21:07.996Z,33.10
2023-04-07T10:23:49.631Z,32.90
2023-04-07T10:26:19.253Z,32.60
2023-04-07T10:28:49.130Z,24.80
2023-04-07T10:31:17.132Z,22.50
2023-04-07T10:33:49.763Z,24.00
2023-04-07T10:36:19.001Z,23.90
2023-04-07T10:39:23.627Z,22.80
2023-04-07T10:41:52.339Z,23.20
2023-04-07T10:44:49.910Z,24.40
2023-04-07T10:47:18.839Z,24.20
2023-04-07T10:50:17.848Z,23.90
2023-04-07T10:52:46.600Z,23.20
2023-04-07T10:55:35.355Z,22.00
2023-04-07T10:58:23.082Z,23.80
2023-04-07T11:01:22.684Z,23.20
2023-04-07T11:04:04.805Z,24.60
2023-04-07T11:06:33.017Z,25.20
2023-04-07T11:09:00.959Z,25.40
2023-04-07T11:11:41.604Z,23.90
2023-04-07T11:14:09.538Z,23.60
2023-04-07T11:16:38.917Z,23.10
2023-04-07T11:19:06.882Z,23.90
2023-04-07T11:21:35.049Z,23.60
2023-04-07T11:24:02.960Z,22.40
2023-04-07T11:26:31.832Z,22.70
2023-04-07T11:29:01.443Z,22.90
2023-04-07T11:31:31.488Z,22.30
2023-04-07T11:34:01.028Z,21.90
2023-04-07T11:36:29.754Z,20.80
2023-04-07T11:38:57.847Z,20.30
2023-04-07T11:41:26.385Z,20.20
2023-04-07T11:44:08.513Z,18.00
2023-04-07T11:46:37.294Z,19.30
2023-04-07T11:49:15.612Z,16.90
2023-04-07T11:51:44.786Z,15.90
2023-04-07T11:54:12.645Z,18.10
2023-04-07T11:56:45.285Z,17.20
2023-04-07T11:59:23.223Z,16.30
2023-04-07T12:01:51.625Z,17.60
2023-04-07T12:04:19.856Z,16.90
2023-04-07T12:06:48.780Z,16.10
2023-04-07T12:09:30.085Z,16.10
2023-04-07T12:11:58.760Z,16.80
2023-04-07T12:14:28.745Z,15.80
2023-04-07T12:16:58.452Z,16.00
2023-04-07T12:19:27.166Z,15.90
2023-04-07T12:21:55.416Z,15.60
2023-04-07T12:24:23.677Z,15.70
2023-04-07T12:26:52.017Z,15.70
2023-04-07T12:29:20.862Z,15.50
2023-04-07T12:31:51.221Z,15.30
2023-04-07T12:34:19.593Z,15.80
2023-04-07T12:36:48.004Z,15.80
2023-04-07T12:39:16.553Z,15.90
2023-04-07T12:41:47.523Z,15.60
2023-04-07T12:44:15.544Z,15.80
2023-04-07T12:46:43.889Z,15.50
2023-04-07T12:49:12.913Z,15.40
2023-04-07T12:51:40.985Z,15.30
2023-04-07T12:54:08.903Z,15.40
2023-04-07T12:56:37.461Z,15.40
2023-04-07T12:59:05.889Z,15.30
2023-04-07T13:01:35.347Z,15.50
2023-04-07T13:04:03.808Z,15.50
2023-04-07T13:06:33.920Z,15.50
2023-04-07T13:09:01.598Z,15.50
2023-04-07T13:11:29.830Z,15.60
2023-04-07T13:13:59.814Z,15.70
2023-04-07T13:16:29.046Z,15.70
2023-04-07T13:18:57.617Z,15.80
2023-04-07T13:23:57.836Z,16.00
2023-04-07T13:26:26.491Z,15.90
2023-04-07T13:28:54.177Z,16.10
2023-04-07T13:31:24.013Z,16.30
2023-04-07T13:33:51.724Z,16.70
2023-04-07T13:36:21.782Z,17.10
2023-04-07T13:38:51.168Z,17.60
2023-04-07T13:41:20.204Z,18.00
2023-04-07T13:43:48.873Z,18.50
2023-04-07T13:46:27.377Z,19.00
2023-04-07T13:48:56.450Z,19.50
2023-04-07T13:51:24.838Z,20.10
2023-04-07T13:53:53.245Z,20.30
2023-04-07T13:56:23.757Z,20.10
2023-04-07T13:58:52.465Z,20.10
2023-04-07T14:01:20.455Z,20.00
2023-04-07T14:03:50.250Z,20.00
2023-04-07T14:06:18.473Z,19.70
2023-04-07T14:08:46.388Z,19.70
2023-04-07T14:11:17.289Z,19.60
2023-04-07T14:13:46.917Z,19.40
2023-04-07T14:16:15.354Z,19.20
2023-04-07T14:18:43.356Z,19.30
2023-04-07T14:21:11.217Z,19.20
2023-04-07T14:23:39.426Z,18.90
2023-04-07T14:26:10.143Z,19.00
2023-04-07T14:28:37.801Z,19.00
2023-04-07T14:31:07.693Z,18.90
2023-04-07T14:33:35.424Z,19.00
2023-04-07T14:36:03.151Z,19.00
2023-04-07T14:38:32.351Z,19.20
2023-04-07T14:43:34.147Z,19.30
2023-04-07T14:46:02.452Z,19.40
2023-04-07T14:48:32.573Z,19.50
2023-04-07T14:51:09.219Z,19.80
2023-04-07T14:53:37.913Z,20.30
2023-04-07T14:56:06.101Z,20.80
2023-04-07T14:58:34.150Z,21.40
2023-04-07T15:01:03.406Z,21.90
2023-04-07T15:03:36.751Z,22.10
2023-04-07T15:06:08.632Z,22.20
2023-04-07T15:08:36.931Z,22.40
2023-04-07T15:11:05.746Z,22.40
2023-04-07T15:13:33.574Z,22.40
2023-04-07T15:16:08.338Z,22.50
2023-04-07T15:18:38.941Z,22.30
2023-04-07T15:21:06.805Z,22.40
2023-04-07T15:23:35.138Z,22.40
2023-04-07T15:26:02.992Z,22.40
2023-04-07T15:28:31.366Z,22.70
2023-04-07T15:30:59.741Z,23.20
2023-04-07T15:33:28.113Z,23.60
2023-04-07T15:35:57.432Z,24.00
2023-04-07T15:38:25.387Z,24.50
2023-04-07T15:40:53.936Z,24.90
2023-04-07T15:43:21.902Z,25.40
2023-04-07T15:45:49.909Z,25.70
2023-04-07T15:48:18.728Z,26.00
2023-04-07T15:50:46.639Z,26.30
2023-04-07T15:53:15.968Z,26.70
2023-04-07T15:55:44.745Z,26.80
2023-04-07T15:58:12.590Z,27.00
2023-04-07T16:00:41.029Z,27.20
2023-04-07T16:03:09.004Z,27.40
2023-04-07T16:05:38.493Z,27.50
2023-04-07T16:08:06.741Z,27.60
2023-04-07T16:10:36.466Z,28.00
2023-04-07T16:13:04.334Z,27.90
2023-04-07T16:15:40.120Z,28.30
2023-04-07T16:18:10.157Z,28.10
2023-04-07T16:20:37.832Z,28.30
2023-04-07T16:23:05.626Z,28.30
2023-04-07T16:25:35.178Z,28.50
2023-04-07T16:28:03.107Z,28.40
2023-04-07T16:30:31.682Z,28.40
2023-04-07T16:33:00.227Z,28.50
2023-04-07T16:35:29.248Z,28.70
2023-04-07T16:38:01.633Z,28.80
2023-04-07T16:40:29.484Z,28.90
2023-04-07T16:42:58.929Z,29.00
2023-04-07T16:45:27.268Z,29.20
2023-04-07T16:47:55.667Z,29.30
2023-04-07T16:50:23.729Z,29.40
2023-04-07T16:52:51.691Z,29.60
2023-04-07T16:55:19.755Z,29.80
2023-04-07T16:57:48.305Z,30.00
2023-04-07T17:00:17.721Z,30.10
2023-04-07T17:02:45.586Z,30.20
2023-04-07T17:05:13.322Z,30.50
2023-04-07T17:07:41.052Z,30.50
2023-04-07T17:10:09.700Z,30.50
2023-04-07T17:12:37.741Z,30.80
2023-04-07T17:15:05.985Z,30.80
2023-04-07T17:17:35.063Z,30.80
2023-04-07T17:20:03.477Z,30.80
2023-04-07T17:22:31.495Z,31.00
2023-04-07T17:24:59.168Z,31.00
2023-04-07T17:27:26.834Z,31.40
2023-04-07T17:29:54.956Z,31.50
2023-04-07T17:32:23.285Z,31.60
2023-04-07T17:34:52.746Z,31.60
2023-04-07T17:37:20.462Z,31.70
2023-04-07T17:39:48.164Z,31.90
2023-04-07T17:42:15.808Z,32.00
2023-04-07T17:44:43.880Z,32.10
2023-04-07T17:47:12.331Z,32.20
2023-04-07T17:49:40.458Z,32.30
2023-04-07T17:52:09.889Z,32.40
2023-04-07T17:54:37.746Z,32.50
2023-04-07T17:57:06.273Z,33.20
2023-04-07T17:59:34.684Z,32.60
2023-04-07T18:02:08.733Z,32.80
2023-04-07T18:04:37.602Z,32.90
2023-04-07T18:07:05.596Z,32.90
2023-04-07T18:09:35.472Z,33.20
2023-04-07T18:12:04.198Z,33.10
2023-04-07T18:14:32.129Z,33.40
2023-04-07T18:16:59.900Z,33.40
2023-04-07T18:19:29.826Z,33.60
2023-04-07T18:21:58.035Z,33.80
2023-04-07T18:24:25.923Z,33.90
2023-04-07T18:26:54.938Z,34.00
2023-04-07T18:29:23.225Z,34.10
2023-04-07T18:31:51.308Z,34.30
2023-04-07T18:34:19.361Z,34.30
2023-04-07T18:36:47.610Z,34.50
2023-04-07T18:39:15.669Z,34.60
2023-04-07T18:41:45.064Z,34.70
2023-04-07T18:44:14.492Z,34.80
2023-04-07T18:46:42.395Z,34.90
2023-04-07T18:49:10.808Z,34.80
2023-04-07T18:51:38.982Z,35.00
2023-04-07T18:54:06.858Z,35.10
2023-04-07T18:56:35.158Z,35.20
2023-04-07T18:59:03.928Z,35.20
2023-04-07T19:01:33.382Z,35.30
2023-04-07T19:04:01.642Z,35.30
2023-04-07T19:06:30.480Z,35.40
2023-04-07T19:08:58.379Z,35.50
2023-04-07T19:11:27.039Z,35.60
2023-04-07T19:13:56.393Z,35.60
2023-04-07T19:16:24.823Z,35.60
2023-04-07T19:18:54.344Z,35.70
2023-04-07T19:21:22.212Z,35.70
2023-04-07T19:23:50.353Z,35.70
2023-04-07T19:26:18.470Z,35.80
2023-04-07T19:28:46.423Z,35.80
2023-04-07T19:31:14.611Z,35.70
2023-04-07T19:33:43.204Z,35.80
2023-04-07T19:36:12.235Z,35.80
2023-04-07T19:38:40.484Z,35.80
2023-04-07T19:41:08.305Z,35.90
2023-04-07T19:43:36.218Z,36.00
2023-04-07T19:46:04.927Z,36.00
2023-04-07T19:48:33.405Z,36.10
2023-04-07T19:51:02.030Z,36.10
2023-04-07T19:53:31.322Z,36.00
2023-04-07T19:55:59.208Z,36.10
2023-04-07T19:58:27.047Z,36.30
2023-04-07T20:00:55.171Z,36.20
2023-04-07T20:03:23.507Z,36.20
2023-04-07T20:05:53.190Z,36.30
2023-04-07T20:08:21.407Z,36.30
2023-04-07T20:10:51.497Z,36.40
2023-04-07T20:13:20.378Z,36.50
2023-04-07T20:15:49.214Z,36.40
2023-04-07T20:18:18.965Z,36.40
2023-04-07T20:20:46.993Z,36.50
2023-04-07T20:23:16.590Z,36.60
2023-04-07T20:25:44.438Z,36.60
2023-04-07T20:28:13.704Z,36.70
2023-04-07T20:30:41.750Z,36.80
2023-04-07T20:33:09.637Z,36.80
2023-04-07T20:35:38.003Z,36.80
2023-04-07T20:38:05.684Z,36.80
2023-04-07T20:40:35.919Z,36.90
2023-04-07T20:43:03.913Z,37.00
2023-04-07T20:45:33.766Z,37.10
2023-04-07T20:48:01.651Z,37.10
2023-04-07T20:50:29.935Z,37.30
2023-04-07T20:52:58.276Z,37.90
2023-04-07T20:55:26.174Z,37.90
2023-04-07T20:57:54.698Z,37.30
2023-04-07T21:00:22.788Z,37.50
2023-04-07T21:02:52.301Z,37.60
2023-04-07T21:05:20.803Z,37.50
2023-04-07T21:07:48.771Z,37.60
2023-04-07T21:10:17.065Z,37.70
2023-04-07T21:12:44.881Z,37.70
2023-04-07T21:15:13.198Z,37.70
2023-04-07T21:17:41.083Z,37.70
2023-04-07T21:20:11.567Z,37.80
2023-04-07T21:22:39.655Z,37.80
2023-04-07T21:25:08.619Z,37.90
2023-04-07T21:27:38.226Z,38.00
2023-04-07T21:30:06.882Z,37.90
2023-04-07T21:32:34.850Z,38.00
2023-04-07T21:35:02.743Z,38.00
2023-04-07T21:37:32.012Z,38.00
2023-04-07T21:39:59.746Z,38.10
2023-04-07T21:42:27.661Z,38.10
2023-04-07T21:44:55.790Z,38.20
2023-04-07T21:47:23.701Z,38.30
2023-04-07T21:49:51.638Z,38.30
2023-04-07T21:52:19.796Z,38.30
2023-04-07T21:54:49.213Z,38.40
2023-04-07T21:57:17.522Z,38.40
2023-04-07T21:59:45.516Z,38.40
2023-04-07T22:02:13.628Z,38.50
2023-04-07T22:04:41.992Z,38.50
2023-04-07T22:07:10.437Z,38.60
2023-04-07T22:09:38.281Z,38.70
2023-04-07T22:12:07.630Z,38.60
2023-04-07T22:14:35.552Z,38.70
2023-04-07T22:17:03.835Z,38.90
2023-04-07T22:19:31.813Z,38.80
2023-04-07T22:21:59.743Z,38.80
2023-04-07T22:24:27.962Z,38.90
2023-04-07T22:26:57.284Z,39.00
2023-04-07T22:29:27.677Z,38.90
2023-04-07T22:31:55.645Z,39.00
2023-04-07T22:34:23.819Z,39.10
2023-04-07T22:36:51.785Z,39.00
2023-04-07T22:39:19.666Z,39.10
2023-04-07T22:41:47.641Z,39.10
2023-04-07T22:44:15.523Z,39.20
2023-04-07T22:46:44.872Z,39.20
2023-04-07T22:49:12.803Z,39.20
2023-04-07T22:51:41.076Z,39.30
2023-04-07T22:54:08.966Z,39.20
2023-04-07T22:56:36.860Z,39.20
2023-04-07T22:59:06.062Z,39.30
2023-04-07T23:01:34.125Z,39.30
2023-04-07T23:04:03.462Z,39.30
2023-04-07T23:06:32.132Z,39.40
2023-04-07T23:09:00.132Z,39.40
2023-04-07T23:11:28.112Z,40.10
2023-04-07T23:13:56.367Z,39.50
2023-04-07T23:16:24.390Z,39.60
2023-04-07T23:18:52.396Z,39.60
2023-04-07T23:21:21.924Z,39.60
2023-04-07T23:23:50.440Z,39.60
2023-04-07T23:26:18.144Z,39.60
2023-04-07T23:28:46.202Z,39.70
2023-04-07T23:31:13.904Z,39.60
2023-04-07T23:33:41.585Z,39.70
2023-04-07T23:36:09.273Z,39.70
2023-04-07T23:38:39.501Z,39.80
2023-04-07T23:41:07.960Z,39.70
2023-04-07T23:43:36.281Z,40.50
2023-04-07T23:46:04.007Z,39.90
2023-04-07T23:48:32.371Z,39.80
2023-04-07T23:51:00.685Z,39.90
2023-04-07T23:53:28.352Z,39.80
2023-04-07T23:55:57.389Z,39.80
2023-04-07T23:58:25.051Z,40.00
